createdAt,value
2022-08-25T00:01:10.526Z,6.07
2022-08-25T00:03:55.197Z,6.63
2022-08-25T00:06:41.078Z,6.05
2022-08-25T00:09:26.614Z,5.80
2022-08-25T00:12:09.740Z,6.10
2022-08-25T00:14:53.140Z,6.43
2022-08-25T00:17:37.611Z,5.82
2022-08-25T00:20:21.245Z,6.20
2022-08-25T00:23:04.337Z,6.30
2022-08-25T00:25:50.904Z,6.07
2022-08-25T00:28:34.294Z,6.30
2022-08-25T00:31:21.036Z,6.50
2022-08-25T00:34:07.503Z,5.93
2022-08-25T00:36:51.775Z,5.50
2022-08-25T00:39:34.918Z,6.30
2022-08-25T00:42:20.731Z,5.50
2022-08-25T00:45:03.947Z,5.30
2022-08-25T00:47:47.007Z,6.82
2022-08-25T00:50:34.878Z,6.47
2022-08-25T00:53:18.943Z,7.50
2022-08-25T00:56:02.871Z,6.97
2022-08-25T00:58:45.923Z,8.77
2022-08-25T01:01:30.532Z,6.68
2022-08-25T01:04:13.697Z,7.18
2022-08-25T01:06:59.927Z,9.57
2022-08-25T01:09:45.158Z,8.95
2022-08-25T01:12:28.493Z,8.30
2022-08-25T01:15:14.383Z,8.75
2022-08-25T01:17:59.768Z,8.68
2022-08-25T01:20:43.290Z,7.80
2022-08-25T01:23:27.992Z,7.47
2022-08-25T01:29:12.996Z,6.82
2022-08-25T01:31:58.434Z,6.53
2022-08-25T01:34:43.801Z,6.57
2022-08-25T01:37:27.130Z,6.30
2022-08-25T01:40:12.979Z,7.80
2022-08-25T01:43:07.524Z,7.57
2022-08-25T01:45:50.788Z,7.45
2022-08-25T01:48:33.943Z,7.03
2022-08-25T01:51:20.260Z,8.90
2022-08-25T01:54:03.288Z,7.95
2022-08-25T01:56:48.013Z,8.93
2022-08-25T02:02:14.002Z,7.60
2022-08-25T02:04:57.062Z,9.48
2022-08-25T02:07:40.111Z,8.68
2022-08-25T02:10:24.081Z,7.20
2022-08-25T02:13:09.604Z,8.90
2022-08-25T02:15:56.444Z,8.75
2022-08-25T02:18:39.446Z,8.32
2022-08-25T02:21:22.883Z,7.85
2022-08-25T02:24:06.979Z,7.10
2022-08-25T02:26:50.543Z,6.68
2022-08-25T02:29:35.205Z,7.22
2022-08-25T02:32:18.251Z,7.93
2022-08-25T02:35:01.384Z,8.60
2022-08-25T02:37:44.910Z,8.65
2022-08-25T02:40:28.069Z,7.65
2022-08-25T02:43:11.653Z,8.15
2022-08-25T02:45:56.652Z,8.70
2022-08-25T02:48:40.854Z,7.80
2022-08-25T02:51:26.233Z,7.45
2022-08-25T02:54:09.443Z,8.52
2022-08-25T02:56:52.494Z,9.27
2022-08-25T02:59:36.138Z,9.15
2022-08-25T03:02:20.549Z,9.95
2022-08-25T03:05:03.605Z,7.57
2022-08-25T03:07:46.683Z,7.55
2022-08-25T03:10:30.638Z,7.85
2022-08-25T03:13:13.713Z,8.38
2022-08-25T03:15:56.695Z,6.78
2022-08-25T03:18:42.946Z,6.18
2022-08-25T03:21:26.330Z,5.90
2022-08-25T03:24:09.631Z,6.13
2022-08-25T03:26:55.947Z,6.30
2022-08-25T03:29:39.417Z,5.55
2022-08-25T03:32:23.895Z,5.15
2022-08-25T03:35:09.250Z,5.43
2022-08-25T03:37:56.116Z,5.22
2022-08-25T03:40:39.313Z,6.93
2022-08-25T03:43:23.660Z,6.28
2022-08-25T03:46:07.101Z,6.57
2022-08-25T03:48:51.030Z,6.43
2022-08-25T03:51:37.605Z,6.70
2022-08-25T03:54:24.138Z,6.93
2022-08-25T03:57:07.186Z,7.38
2022-08-25T03:59:50.220Z,6.97
2022-08-25T04:02:33.752Z,6.45
2022-08-25T04:05:17.284Z,8.10
2022-08-25T04:08:02.535Z,7.25
2022-08-25T04:10:45.719Z,7.10
2022-08-25T04:13:29.223Z,6.68
2022-08-25T04:16:14.339Z,6.75
2022-08-25T04:18:58.689Z,7.03
2022-08-25T04:21:42.447Z,6.85
2022-08-25T04:24:26.830Z,5.57
2022-08-25T04:27:09.995Z,5.18
2022-08-25T04:29:53.146Z,5.53
2022-08-25T04:32:37.307Z,6.35
2022-08-25T04:35:21.349Z,5.50
2022-08-25T04:38:04.565Z,5.97
2022-08-25T04:40:57.040Z,5.70
2022-08-25T04:43:42.022Z,6.07
2022-08-25T04:46:28.056Z,6.57
2022-08-25T04:49:11.229Z,5.45
2022-08-25T04:51:54.334Z,6.45
2022-08-25T04:54:37.573Z,6.07
2022-08-25T04:57:22.048Z,5.72
2022-08-25T05:00:06.306Z,6.43
2022-08-25T05:02:49.357Z,6.63
2022-08-25T05:05:33.857Z,6.45
2022-08-25T05:08:16.899Z,8.38
2022-08-25T05:11:00.481Z,8.57
2022-08-25T05:13:51.369Z,7.78
2022-08-25T05:16:34.917Z,6.70
2022-08-25T05:19:18.333Z,7.72
2022-08-25T05:22:01.392Z,7.60
2022-08-25T05:24:44.674Z,7.40
2022-08-25T05:27:27.674Z,8.85
2022-08-25T05:30:13.414Z,9.55
2022-08-25T05:32:57.299Z,8.95
2022-08-25T05:35:40.964Z,8.55
2022-08-25T05:38:24.525Z,10.25
2022-08-25T05:41:10.289Z,9.48
2022-08-25T05:43:53.375Z,8.55
2022-08-25T05:46:37.790Z,8.40
2022-08-25T05:49:21.051Z,8.45
2022-08-25T05:52:04.514Z,8.77
2022-08-25T05:54:48.222Z,11.80
2022-08-25T05:57:31.314Z,9.77
2022-08-25T06:00:15.003Z,10.80
2022-08-25T06:02:58.459Z,9.73
2022-08-25T06:05:41.885Z,8.50
2022-08-25T06:08:26.859Z,7.28
2022-08-25T06:11:09.897Z,6.10
2022-08-25T06:13:52.924Z,7.05
2022-08-25T06:16:36.317Z,7.60
2022-08-25T06:19:21.244Z,7.20
2022-08-25T06:22:04.510Z,6.57
2022-08-25T06:24:47.557Z,6.57
2022-08-25T06:27:30.643Z,7.57
2022-08-25T06:30:22.465Z,7.38
2022-08-25T06:33:07.690Z,6.72
2022-08-25T06:35:55.192Z,6.72
2022-08-25T06:38:38.331Z,6.65
2022-08-25T06:41:21.356Z,7.70
2022-08-25T06:44:05.536Z,7.35
2022-08-25T06:46:48.788Z,6.88
2022-08-25T06:49:35.596Z,6.50
2022-08-25T06:52:20.932Z,6.38
2022-08-25T06:55:06.789Z,6.32
2022-08-25T06:57:49.877Z,5.97
2022-08-25T07:00:33.551Z,6.35
2022-08-25T07:03:16.657Z,6.90
2022-08-25T07:05:59.718Z,5.95
2022-08-25T07:08:44.227Z,7.72
2022-08-25T07:11:27.550Z,6.50
2022-08-25T07:14:13.008Z,6.78
2022-08-25T07:16:56.083Z,7.90
2022-08-25T07:19:39.176Z,9.60
2022-08-25T07:22:24.041Z,7.47
2022-08-25T07:25:11.087Z,7.57
2022-08-25T07:27:58.574Z,7.10
2022-08-25T07:30:42.361Z,6.80
2022-08-25T07:33:25.402Z,7.97
2022-08-25T07:36:08.613Z,6.93
2022-08-25T07:38:52.656Z,6.88
2022-08-25T07:41:41.011Z,5.85
2022-08-25T07:44:25.291Z,7.85
2022-08-25T07:47:11.265Z,7.60
2022-08-25T07:49:54.828Z,6.82
2022-08-25T07:52:38.789Z,6.30
2022-08-25T07:55:21.969Z,6.38
2022-08-25T07:58:08.210Z,5.95
2022-08-25T08:00:53.226Z,7.50
2022-08-25T08:03:50.087Z,6.47
2022-08-25T08:06:34.528Z,7.13
2022-08-25T08:09:18.518Z,7.10
2022-08-25T08:12:01.725Z,7.10
2022-08-25T08:14:46.501Z,7.68
2022-08-25T08:20:14.014Z,8.30
2022-08-25T08:22:57.323Z,7.18
2022-08-25T08:25:40.373Z,7.95
2022-08-25T08:28:27.800Z,7.20
2022-08-25T08:31:12.628Z,7.05
2022-08-25T08:33:57.319Z,7.38
2022-08-25T08:36:40.339Z,8.27
2022-08-25T08:39:23.411Z,7.60
2022-08-25T08:42:28.566Z,7.78
2022-08-25T08:45:28.334Z,6.72
2022-08-25T08:48:41.802Z,6.80
2022-08-25T08:51:32.812Z,7.35
2022-08-25T08:54:23.043Z,7.20
2022-08-25T08:57:12.802Z,6.65
2022-08-25T09:00:00.895Z,6.75
2022-08-25T09:02:51.943Z,8.07
2022-08-25T09:05:47.366Z,6.60
2022-08-25T09:08:30.468Z,6.97
2022-08-25T09:11:23.461Z,6.50
2022-08-25T09:14:30.172Z,6.25
2022-08-25T09:17:22.786Z,8.40
2022-08-25T09:20:19.921Z,6.53
2022-08-25T09:23:20.191Z,6.53
2022-08-25T09:26:20.819Z,7.07
2022-08-25T09:29:16.403Z,6.75
2022-08-25T09:32:01.686Z,5.63
2022-08-25T09:34:49.049Z,6.18
2022-08-25T09:37:32.086Z,7.28
2022-08-25T09:40:17.034Z,6.63
2022-08-25T09:43:03.085Z,7.25
2022-08-25T09:45:49.156Z,7.20
2022-08-25T09:48:40.652Z,6.82
2022-08-25T09:51:27.326Z,5.40
2022-08-25T09:54:20.927Z,6.10
2022-08-25T09:57:10.285Z,6.75
2022-08-25T09:59:57.584Z,5.85
2022-08-25T10:02:42.739Z,7.20
2022-08-25T10:05:28.174Z,6.93
2022-08-25T10:08:16.311Z,7.75
2022-08-25T10:11:08.801Z,7.57
2022-08-25T10:14:03.302Z,6.15
2022-08-25T10:16:47.465Z,6.05
2022-08-25T10:19:31.143Z,5.85
2022-08-25T10:22:25.854Z,6.20
2022-08-25T10:28:11.020Z,6.88
2022-08-25T10:31:03.947Z,6.88
2022-08-25T10:33:58.931Z,5.75
2022-08-25T10:36:56.043Z,5.80
2022-08-25T10:39:43.380Z,5.65
2022-08-25T10:42:35.123Z,5.70
2022-08-25T10:45:40.385Z,5.90
2022-08-25T10:51:42.039Z,5.57
2022-08-25T10:54:40.599Z,5.80
2022-08-25T10:57:33.466Z,6.50
2022-08-25T11:00:22.446Z,5.53
2022-08-25T11:03:27.738Z,5.07
2022-08-25T11:06:22.583Z,5.43
2022-08-25T11:09:12.285Z,6.95
2022-08-25T11:12:00.623Z,6.65
2022-08-25T11:14:49.646Z,6.15
2022-08-25T11:17:43.612Z,5.60
2022-08-25T11:20:33.570Z,5.40
2022-08-25T11:23:23.991Z,5.13
2022-08-25T11:26:12.317Z,5.07
2022-08-25T11:29:02.651Z,4.78
2022-08-25T11:31:54.718Z,5.53
2022-08-25T11:34:43.464Z,6.32
2022-08-25T11:37:30.874Z,5.55
2022-08-25T11:40:39.265Z,5.72
2022-08-25T11:43:38.107Z,5.05
2022-08-25T11:46:36.693Z,6.15
2022-08-25T11:49:39.897Z,5.30
2022-08-25T11:52:49.200Z,5.63
2022-08-25T11:55:50.047Z,5.30
2022-08-25T11:58:42.448Z,5.57
2022-08-25T12:02:05.297Z,5.60
2022-08-25T12:04:48.957Z,5.90
2022-08-25T12:08:20.516Z,5.53
2022-08-25T12:11:11.118Z,6.18
2022-08-25T12:14:16.122Z,5.15
2022-08-25T12:17:12.198Z,4.15
2022-08-25T12:19:59.592Z,4.78
2022-08-25T12:22:56.358Z,4.50
2022-08-25T12:25:54.886Z,4.53
2022-08-25T12:28:48.920Z,5.40
2022-08-25T12:31:53.749Z,5.47
2022-08-25T12:35:04.820Z,4.28
2022-08-25T12:38:01.474Z,4.40
2022-08-25T12:40:59.375Z,4.38
2022-08-25T12:43:44.768Z,4.70
2022-08-25T12:46:39.519Z,4.35
2022-08-25T12:52:19.697Z,5.00
2022-08-25T12:55:06.420Z,5.45
2022-08-25T12:57:57.823Z,4.30
2022-08-25T13:01:00.929Z,4.45
2022-08-25T13:04:09.952Z,4.68
2022-08-25T13:07:15.509Z,4.57
2022-08-25T13:10:23.773Z,4.60
2022-08-25T13:13:14.782Z,4.47
2022-08-25T13:16:04.778Z,4.90
2022-08-25T13:18:51.375Z,4.50
2022-08-25T13:21:38.553Z,5.15
2022-08-25T13:24:27.815Z,4.55
2022-08-25T13:27:22.523Z,5.60
2022-08-25T13:30:08.288Z,4.65
2022-08-25T13:32:51.288Z,4.35
2022-08-25T13:35:34.444Z,5.00
2022-08-25T13:38:18.952Z,4.63
2022-08-25T13:41:08.274Z,4.38
2022-08-25T13:43:53.321Z,4.78
2022-08-25T13:46:36.360Z,4.30
2022-08-25T13:49:27.476Z,5.40
2022-08-25T13:52:29.295Z,4.57
2022-08-25T13:55:12.446Z,5.07
2022-08-25T13:57:58.625Z,4.90
2022-08-25T14:00:47.248Z,3.55
2022-08-25T14:03:33.460Z,4.03
2022-08-25T14:06:23.631Z,4.28
2022-08-25T14:09:16.185Z,3.70
2022-08-25T14:11:59.641Z,4.22
2022-08-25T14:14:44.069Z,4.68
2022-08-25T14:17:39.050Z,3.45
2022-08-25T14:20:29.055Z,4.53
2022-08-25T14:23:18.927Z,4.15
2022-08-25T14:26:02.234Z,3.88
2022-08-25T14:28:46.350Z,3.88
2022-08-25T14:31:33.563Z,3.70
2022-08-25T14:34:20.725Z,3.92
2022-08-25T14:37:07.304Z,3.50
2022-08-25T14:39:52.347Z,3.20
2022-08-25T14:42:36.491Z,4.35
2022-08-25T14:45:20.499Z,3.60
2022-08-25T14:48:10.720Z,2.88
2022-08-25T14:50:54.966Z,2.58
2022-08-25T14:53:38.037Z,3.30
2022-08-25T14:59:05.706Z,3.88
2022-08-25T15:01:50.104Z,4.78
2022-08-25T15:04:36.600Z,3.50
2022-08-25T15:07:39.656Z,3.15
2022-08-25T15:10:23.027Z,3.83
2022-08-25T15:13:08.877Z,3.30
2022-08-25T15:15:53.223Z,4.80
2022-08-25T15:18:37.056Z,3.50
2022-08-25T15:21:21.539Z,3.60
2022-08-25T15:24:05.397Z,2.85
2022-08-25T15:29:40.898Z,3.92
2022-08-25T15:32:24.969Z,4.10
2022-08-25T15:35:11.713Z,3.78
2022-08-25T15:37:59.978Z,3.33
2022-08-25T15:40:42.973Z,3.35
2022-08-25T15:43:26.168Z,3.55
2022-08-25T15:46:09.553Z,3.50
2022-08-25T15:48:53.398Z,3.35
2022-08-25T15:51:36.794Z,3.20
2022-08-25T15:54:21.737Z,3.10
2022-08-25T15:57:08.805Z,3.30
2022-08-25T15:59:53.280Z,3.10
2022-08-25T16:02:36.336Z,3.43
2022-08-25T16:05:25.654Z,3.50
2022-08-25T16:08:19.372Z,3.55
2022-08-25T16:11:04.955Z,3.72
2022-08-25T16:13:51.521Z,3.05
2022-08-25T16:16:35.036Z,3.45
2022-08-25T16:19:18.260Z,3.33
2022-08-25T16:22:02.166Z,3.38
2022-08-25T16:24:45.780Z,3.60
2022-08-25T16:27:38.581Z,3.25
2022-08-25T16:30:22.643Z,4.20
2022-08-25T16:33:06.386Z,3.10
2022-08-25T16:35:49.614Z,3.80
2022-08-25T16:38:32.776Z,3.45
2022-08-25T16:41:18.387Z,3.70
2022-08-25T16:44:04.432Z,3.60
2022-08-25T16:46:47.676Z,3.67
2022-08-25T16:49:31.055Z,4.07
2022-08-25T16:52:32.101Z,4.00
2022-08-25T16:55:16.006Z,3.70
2022-08-25T16:58:01.012Z,4.15
2022-08-25T17:00:49.895Z,4.30
2022-08-25T17:03:34.523Z,4.07
2022-08-25T17:09:00.654Z,3.80
2022-08-25T17:11:46.913Z,4.22
2022-08-25T17:14:30.033Z,4.50
2022-08-25T17:17:15.278Z,4.83
2022-08-25T17:19:58.342Z,4.13
2022-08-25T17:22:43.857Z,4.55
2022-08-25T17:25:27.584Z,4.43
2022-08-25T17:28:12.018Z,4.32
2022-08-25T17:30:55.976Z,4.28
2022-08-25T17:33:40.889Z,4.55
2022-08-25T17:36:27.005Z,4.78
2022-08-25T17:39:12.942Z,4.90
2022-08-25T17:41:57.320Z,5.03
2022-08-25T17:44:40.481Z,5.43
2022-08-25T17:47:23.543Z,4.53
2022-08-25T17:50:08.922Z,5.00
2022-08-25T17:52:52.660Z,4.72
2022-08-25T17:55:35.944Z,5.63
2022-08-25T17:58:19.862Z,4.80
2022-08-25T18:01:04.262Z,4.95
2022-08-25T18:06:32.718Z,5.18
2022-08-25T18:09:16.005Z,5.10
2022-08-25T18:11:59.130Z,5.50
2022-08-25T18:14:42.201Z,5.32
2022-08-25T18:17:29.703Z,5.43
2022-08-25T18:20:15.595Z,5.05
2022-08-25T18:23:02.138Z,4.60
2022-08-25T18:25:45.446Z,5.10
2022-08-25T18:28:30.659Z,5.00
2022-08-25T18:31:13.844Z,4.53
2022-08-25T18:33:56.945Z,5.18
2022-08-25T18:36:40.474Z,5.18
2022-08-25T18:39:38.909Z,5.70
2022-08-25T18:42:21.914Z,4.85
2022-08-25T18:45:08.617Z,5.45
2022-08-25T18:47:57.514Z,5.80
2022-08-25T18:50:43.145Z,6.78
2022-08-25T18:53:36.907Z,7.00
2022-08-25T18:56:33.208Z,5.30
2022-08-25T18:59:16.541Z,6.05
2022-08-25T19:01:59.818Z,5.80
2022-08-25T19:04:46.255Z,5.57
2022-08-25T19:07:29.373Z,5.40
2022-08-25T19:10:12.666Z,5.47
2022-08-25T19:12:58.051Z,5.47
2022-08-25T19:15:46.897Z,5.80
2022-08-25T19:21:13.469Z,5.13
2022-08-25T19:23:56.577Z,5.32
2022-08-25T19:26:40.984Z,5.78
2022-08-25T19:29:25.577Z,5.63
2022-08-25T19:32:08.948Z,6.75
2022-08-25T19:34:56.784Z,6.72
2022-08-25T19:37:39.960Z,5.57
2022-08-25T19:40:23.735Z,5.30
2022-08-25T19:43:08.694Z,5.22
2022-08-25T19:45:53.181Z,5.40
2022-08-25T19:48:36.368Z,4.90
2022-08-25T19:51:21.924Z,4.95
2022-08-25T19:54:05.799Z,5.07
2022-08-25T19:56:54.586Z,5.30
2022-08-25T19:59:43.458Z,5.50
2022-08-25T20:02:29.840Z,5.70
2022-08-25T20:05:14.300Z,5.35
2022-08-25T20:07:58.872Z,5.35
2022-08-25T20:10:42.475Z,5.43
2022-08-25T20:13:25.518Z,5.55
2022-08-25T20:16:08.732Z,5.75
2022-08-25T20:18:53.237Z,5.53
2022-08-25T20:21:38.951Z,5.03
2022-08-25T20:24:39.336Z,4.85
2022-08-25T20:27:25.958Z,5.65
2022-08-25T20:30:13.499Z,6.13
2022-08-25T20:32:58.185Z,5.90
2022-08-25T20:38:31.912Z,6.05
2022-08-25T20:41:16.249Z,6.95
2022-08-25T20:43:59.313Z,6.32
2022-08-25T20:46:43.595Z,6.20
2022-08-25T20:49:28.954Z,5.63
2022-08-25T20:52:22.213Z,7.13
2022-08-25T20:55:06.165Z,8.50
2022-08-25T21:00:33.088Z,7.63
2022-08-25T21:03:19.169Z,8.45
2022-08-25T21:06:07.087Z,7.70
2022-08-25T21:08:51.702Z,7.22
2022-08-25T21:11:35.298Z,7.03
2022-08-25T21:14:18.781Z,6.57
2022-08-25T21:17:02.369Z,7.05
2022-08-25T21:22:35.450Z,8.40
2022-08-25T21:25:20.830Z,8.27
2022-08-25T21:28:04.225Z,8.32
2022-08-25T21:30:47.565Z,9.23
2022-08-25T21:33:31.272Z,7.32
2022-08-25T21:36:15.885Z,7.53
2022-08-25T21:41:45.563Z,7.03
2022-08-25T21:44:28.901Z,7.20
2022-08-25T21:47:12.022Z,6.68
2022-08-25T21:49:55.177Z,7.25
2022-08-25T21:52:39.136Z,6.57
2022-08-25T21:55:24.299Z,7.43
2022-08-25T21:58:09.277Z,8.18
2022-08-25T22:00:52.317Z,8.13
2022-08-25T22:03:37.019Z,8.23
2022-08-25T22:09:08.774Z,7.63
2022-08-25T22:11:51.937Z,8.38
2022-08-25T22:14:39.837Z,7.35
2022-08-25T22:17:24.427Z,7.53
2022-08-25T22:20:09.132Z,6.97
2022-08-25T22:22:52.191Z,7.35
2022-08-25T22:25:35.204Z,6.88
2022-08-25T22:28:18.367Z,6.57
2022-08-25T22:31:06.767Z,6.28
2022-08-25T22:33:52.969Z,6.10
2022-08-25T22:36:38.748Z,6.65
2022-08-25T22:39:22.731Z,6.80
2022-08-25T22:42:06.662Z,8.02
2022-08-25T22:44:49.706Z,7.97
2022-08-25T22:47:35.060Z,7.38
2022-08-25T22:53:02.021Z,6.03
2022-08-25T22:55:45.088Z,6.40
2022-08-25T22:58:30.285Z,6.80
2022-08-25T23:01:16.333Z,5.85
2022-08-25T23:04:01.896Z,6.43
2022-08-25T23:06:44.952Z,6.88
2022-08-25T23:09:30.516Z,5.93
2022-08-25T23:12:13.514Z,5.93
2022-08-25T23:14:57.085Z,6.25
2022-08-25T23:17:40.218Z,6.22
2022-08-25T23:20:45.229Z,5.85
2022-08-25T23:23:29.510Z,6.28
2022-08-25T23:26:12.738Z,5.93
2022-08-25T23:28:57.473Z,5.85
2022-08-25T23:31:41.449Z,5.55
2022-08-25T23:34:25.077Z,5.53
2022-08-25T23:37:10.279Z,5.55
2022-08-25T23:39:53.372Z,5.38
2022-08-25T23:42:36.529Z,5.82
2022-08-25T23:45:20.487Z,6.38
2022-08-25T23:48:04.505Z,6.07
2022-08-25T23:50:54.247Z,5.55
2022-08-25T23:53:38.996Z,5.03
2022-08-25T23:56:22.402Z,5.95
2022-08-25T23:59:05.673Z,6.00
